sensor_id;sensor_type;location;lat;lon;timestamp;pressure;altitude;pressure_sealevel;temperature;humidity
66689;BME280;53587;59.318;18.084;2023-05-15T00:00:39;102032.13;;;19.83;83.45
66689;BME280;53587;59.318;18.084;2023-05-15T00:03:05;102023.16;;;19.50;84.68
66689;BME280;53587;59.318;18.084;2023-05-15T00:05:31;102018.94;;;19.31;84.50
66689;BME280;53587;59.318;18.084;2023-05-15T00:07:56;102015.44;;;19.57;89.45
66689;BME280;53587;59.318;18.084;2023-05-15T00:10:22;102011.19;;;20.02;91.22
66689;BME280;53587;59.318;18.084;2023-05-15T00:12:47;102009.00;;;20.30;90.84
66689;BME280;53587;59.318;18.084;2023-05-15T00:15:12;102023.97;;;20.50;89.73
66689;BME280;53587;59.318;18.084;2023-05-15T00:17:38;102005.09;;;20.00;85.02
66689;BME280;53587;59.318;18.084;2023-05-15T00:20:03;102017.94;;;19.58;85.04
66689;BME280;53587;59.318;18.084;2023-05-15T00:22:29;102017.56;;;19.39;84.82
66689;BME280;53587;59.318;18.084;2023-05-15T00:24:54;102014.13;;;19.11;83.97
66689;BME280;53587;59.318;18.084;2023-05-15T00:27:19;102017.69;;;19.65;89.93
66689;BME280;53587;59.318;18.084;2023-05-15T00:29:45;102016.72;;;20.02;90.57
66689;BME280;53587;59.318;18.084;2023-05-15T00:32:10;102018.69;;;20.22;89.71
66689;BME280;53587;59.318;18.084;2023-05-15T00:34:35;102013.72;;;20.40;89.26
66689;BME280;53587;59.318;18.084;2023-05-15T00:37:00;102011.50;;;20.26;85.96
66689;BME280;53587;59.318;18.084;2023-05-15T00:39:25;102009.41;;;19.75;85.03
66689;BME280;53587;59.318;18.084;2023-05-15T00:41:51;102009.31;;;19.44;84.13
66689;BME280;53587;59.318;18.084;2023-05-15T00:44:17;102003.69;;;19.24;84.23
66689;BME280;53587;59.318;18.084;2023-05-15T00:46:44;102003.75;;;19.39;87.77
66689;BME280;53587;59.318;18.084;2023-05-15T00:49:09;101993.38;;;19.77;90.38
66689;BME280;53587;59.318;18.084;2023-05-15T00:51:37;101985.75;;;20.10;91.51
66689;BME280;53587;59.318;18.084;2023-05-15T00:54:04;101979.66;;;20.29;89.68
66689;BME280;53587;59.318;18.084;2023-05-15T00:56:29;101982.41;;;20.44;89.30
66689;BME280;53587;59.318;18.084;2023-05-15T00:58:55;101980.78;;;20.49;86.76
66689;BME280;53587;59.318;18.084;2023-05-15T01:01:21;101978.47;;;19.78;84.27
66689;BME280;53587;59.318;18.084;2023-05-15T01:03:46;101974.81;;;19.52;84.50
66689;BME280;53587;59.318;18.084;2023-05-15T01:06:11;101976.09;;;19.34;83.50
66689;BME280;53587;59.318;18.084;2023-05-15T01:08:46;101986.28;;;19.23;85.52
66689;BME280;53587;59.318;18.084;2023-05-15T01:11:13;101992.28;;;19.68;89.80
66689;BME280;53587;59.318;18.084;2023-05-15T01:13:38;101989.03;;;19.97;90.90
66689;BME280;53587;59.318;18.084;2023-05-15T01:16:04;101977.16;;;20.17;90.62
66689;BME280;53587;59.318;18.084;2023-05-15T01:18:30;101978.56;;;20.35;89.81
66689;BME280;53587;59.318;18.084;2023-05-15T01:26:10;101966.81;;;19.76;84.36
66689;BME280;53587;59.318;18.084;2023-05-15T01:28:41;101977.28;;;19.49;84.68
66689;BME280;53587;59.318;18.084;2023-05-15T01:31:13;101984.91;;;19.26;83.92
66689;BME280;53587;59.318;18.084;2023-05-15T01:33:42;101974.69;;;19.21;86.57
66689;BME280;53587;59.318;18.084;2023-05-15T01:36:13;101975.38;;;19.59;90.28
66689;BME280;53587;59.318;18.084;2023-05-15T01:44:09;101954.19;;;20.27;88.92
66689;BME280;53587;59.318;18.084;2023-05-15T01:46:37;101945.91;;;20.42;87.83
66689;BME280;53587;59.318;18.084;2023-05-15T01:49:03;101940.84;;;19.83;83.05
66689;BME280;53587;59.318;18.084;2023-05-15T01:51:30;101939.38;;;19.49;84.10
66689;BME280;53587;59.318;18.084;2023-05-15T01:53:55;101934.88;;;19.22;84.01
66689;BME280;53587;59.318;18.084;2023-05-15T01:56:23;101939.44;;;18.96;83.75
66689;BME280;53587;59.318;18.084;2023-05-15T01:58:50;101943.75;;;19.29;88.77
66689;BME280;53587;59.318;18.084;2023-05-15T02:01:16;101936.38;;;19.61;90.73
66689;BME280;53587;59.318;18.084;2023-05-15T02:03:41;101934.25;;;19.89;90.83
66689;BME280;53587;59.318;18.084;2023-05-15T02:06:07;101932.06;;;20.06;89.67
66689;BME280;53587;59.318;18.084;2023-05-15T02:08:33;101932.06;;;20.27;88.59
66689;BME280;53587;59.318;18.084;2023-05-15T02:10:59;101929.81;;;20.39;87.42
66689;BME280;53587;59.318;18.084;2023-05-15T02:13:25;101932.25;;;19.58;83.22
66689;BME280;53587;59.318;18.084;2023-05-15T02:15:51;101940.16;;;19.29;83.49
66689;BME280;53587;59.318;18.084;2023-05-15T02:18:16;101947.78;;;19.06;83.11
66689;BME280;53587;59.318;18.084;2023-05-15T02:20:42;101944.31;;;18.83;83.91
66689;BME280;53587;59.318;18.084;2023-05-15T02:23:07;101942.94;;;19.34;89.07
66689;BME280;53587;59.318;18.084;2023-05-15T02:25:34;101934.16;;;19.63;90.94
66689;BME280;53587;59.318;18.084;2023-05-15T02:28:01;101926.78;;;19.89;90.70
66689;BME280;53587;59.318;18.084;2023-05-15T02:33:04;101923.75;;;20.22;88.30
66689;BME280;53587;59.318;18.084;2023-05-15T02:38:01;101914.31;;;19.82;84.03
66689;BME280;53587;59.318;18.084;2023-05-15T02:40:27;101920.03;;;19.54;84.45
66689;BME280;53587;59.318;18.084;2023-05-15T02:42:53;101918.06;;;19.34;83.23
66689;BME280;53587;59.318;18.084;2023-05-15T02:45:19;101924.59;;;19.12;84.54
66689;BME280;53587;59.318;18.084;2023-05-15T02:47:44;101914.81;;;19.58;89.28
66689;BME280;53587;59.318;18.084;2023-05-15T02:50:10;101920.41;;;19.89;91.03
66689;BME280;53587;59.318;18.084;2023-05-15T02:52:35;101912.97;;;20.15;90.24
66689;BME280;53587;59.318;18.084;2023-05-15T02:55:01;101906.31;;;20.32;89.00
66689;BME280;53587;59.318;18.084;2023-05-15T02:57:26;101907.66;;;20.44;87.95
66689;BME280;53587;59.318;18.084;2023-05-15T02:59:52;101905.50;;;20.10;82.53
66689;BME280;53587;59.318;18.084;2023-05-15T03:02:17;101899.31;;;19.57;83.36
66689;BME280;53587;59.318;18.084;2023-05-15T03:04:42;101898.16;;;19.32;84.02
66689;BME280;53587;59.318;18.084;2023-05-15T03:07:07;101903.34;;;19.13;82.76
66689;BME280;53587;59.318;18.084;2023-05-15T03:09:33;101896.50;;;19.31;87.75
66689;BME280;53587;59.318;18.084;2023-05-15T03:11:58;101895.47;;;19.63;90.24
66689;BME280;53587;59.318;18.084;2023-05-15T03:14:23;101887.22;;;19.89;91.38
66689;BME280;53587;59.318;18.084;2023-05-15T03:16:48;101882.28;;;20.06;89.70
66689;BME280;53587;59.318;18.084;2023-05-15T03:19:14;101885.00;;;20.22;88.56
66689;BME280;53587;59.318;18.084;2023-05-15T03:21:39;101888.88;;;20.36;87.84
66689;BME280;53587;59.318;18.084;2023-05-15T03:24:04;101881.69;;;19.84;82.14
66689;BME280;53587;59.318;18.084;2023-05-15T03:26:29;101884.38;;;19.42;83.16
66689;BME280;53587;59.318;18.084;2023-05-15T03:28:56;101891.72;;;19.11;82.59
66689;BME280;53587;59.318;18.084;2023-05-15T03:31:22;101888.09;;;19.00;81.98
66689;BME280;53587;59.318;18.084;2023-05-15T03:33:47;101889.56;;;19.23;87.68
66689;BME280;53587;59.318;18.084;2023-05-15T03:36:14;101888.53;;;19.55;90.53
66689;BME280;53587;59.318;18.084;2023-05-15T03:38:39;101887.47;;;19.82;90.91
66689;BME280;53587;59.318;18.084;2023-05-15T03:41:04;101891.13;;;19.98;89.53
66689;BME280;53587;59.318;18.084;2023-05-15T03:43:29;101890.00;;;20.15;87.89
66689;BME280;53587;59.318;18.084;2023-05-15T03:45:54;101894.16;;;20.27;86.56
66689;BME280;53587;59.318;18.084;2023-05-15T03:48:20;101891.59;;;19.64;81.66
66689;BME280;53587;59.318;18.084;2023-05-15T03:50:45;101884.59;;;19.25;83.44
66689;BME280;53587;59.318;18.084;2023-05-15T03:53:10;101882.56;;;19.00;83.99
66689;BME280;53587;59.318;18.084;2023-05-15T03:55:35;101877.47;;;18.81;83.56
66689;BME280;53587;59.318;18.084;2023-05-15T03:58:02;101837.91;;;19.19;88.75
66689;BME280;53587;59.318;18.084;2023-05-15T04:00:27;101865.03;;;19.47;90.93
66689;BME280;53587;59.318;18.084;2023-05-15T04:02:52;101860.06;;;19.75;90.70
66689;BME280;53587;59.318;18.084;2023-05-15T04:05:18;101855.69;;;19.90;89.05
66689;BME280;53587;59.318;18.084;2023-05-15T04:07:43;101854.59;;;20.06;87.74
66689;BME280;53587;59.318;18.084;2023-05-15T04:10:09;101851.25;;;20.20;86.22
66689;BME280;53587;59.318;18.084;2023-05-15T04:12:34;101849.59;;;20.24;84.74
66689;BME280;53587;59.318;18.084;2023-05-15T04:15:33;101859.50;;;19.53;83.49
66689;BME280;53587;59.318;18.084;2023-05-15T04:17:52;101853.31;;;19.04;83.67
66689;BME280;53587;59.318;18.084;2023-05-15T04:20:18;101851.81;;;18.86;83.53
66689;BME280;53587;59.318;18.084;2023-05-15T04:22:44;101849.09;;;18.91;86.98
66689;BME280;53587;59.318;18.084;2023-05-15T04:25:10;101849.53;;;19.31;90.13
66689;BME280;53587;59.318;18.084;2023-05-15T04:27:36;101843.47;;;19.60;89.77
66689;BME280;53587;59.318;18.084;2023-05-15T04:30:01;101837.69;;;19.77;88.56
66689;BME280;53587;59.318;18.084;2023-05-15T04:32:27;101844.63;;;19.95;87.40
66689;BME280;53587;59.318;18.084;2023-05-15T04:34:52;101848.78;;;20.13;86.34
66689;BME280;53587;59.318;18.084;2023-05-15T04:37:17;101844.63;;;20.16;84.31
66689;BME280;53587;59.318;18.084;2023-05-15T04:39:43;101837.38;;;19.42;82.89
66689;BME280;53587;59.318;18.084;2023-05-15T04:42:08;101843.66;;;19.07;83.55
66689;BME280;53587;59.318;18.084;2023-05-15T04:44:33;101832.19;;;18.82;84.08
66689;BME280;53587;59.318;18.084;2023-05-15T04:46:58;101849.03;;;18.81;85.85
66689;BME280;53587;59.318;18.084;2023-05-15T04:49:24;101843.44;;;19.24;88.80
66689;BME280;53587;59.318;18.084;2023-05-15T04:51:49;101836.81;;;19.51;90.42
66689;BME280;53587;59.318;18.084;2023-05-15T04:54:14;101838.50;;;19.72;88.46
66689;BME280;53587;59.318;18.084;2023-05-15T04:56:39;101838.56;;;19.88;87.80
66689;BME280;53587;59.318;18.084;2023-05-15T04:59:05;101836.34;;;20.05;86.63
66689;BME280;53587;59.318;18.084;2023-05-15T05:01:30;101839.06;;;20.21;87.79
66689;BME280;53587;59.318;18.084;2023-05-15T05:03:55;101847.06;;;20.38;87.30
66689;BME280;53587;59.318;18.084;2023-05-15T05:06:21;101841.03;;;20.05;82.68
66689;BME280;53587;59.318;18.084;2023-05-15T05:08:46;101842.06;;;19.47;83.28
66689;BME280;53587;59.318;18.084;2023-05-15T05:11:12;101835.94;;;19.09;83.46
66689;BME280;53587;59.318;18.084;2023-05-15T05:13:37;101830.13;;;19.05;84.27
66689;BME280;53587;59.318;18.084;2023-05-15T05:16:02;101821.09;;;19.51;88.62
66689;BME280;53587;59.318;18.084;2023-05-15T05:18:28;101822.50;;;20.10;91.08
66689;BME280;53587;59.318;18.084;2023-05-15T05:21:00;101825.69;;;20.59;91.66
66689;BME280;53587;59.318;18.084;2023-05-15T05:23:26;101817.19;;;20.35;84.74
66689;BME280;53587;59.318;18.084;2023-05-15T05:25:51;101812.50;;;20.25;83.79
66689;BME280;53587;59.318;18.084;2023-05-15T05:28:16;101815.78;;;20.32;84.98
66689;BME280;53587;59.318;18.084;2023-05-15T05:30:44;101816.91;;;20.31;85.44
66689;BME280;53587;59.318;18.084;2023-05-15T05:33:10;101816.72;;;20.93;89.43
66689;BME280;53587;59.318;18.084;2023-05-15T05:35:35;101825.09;;;20.78;84.93
66689;BME280;53587;59.318;18.084;2023-05-15T05:38:01;101823.44;;;20.77;84.65
66689;BME280;53587;59.318;18.084;2023-05-15T05:40:26;101823.44;;;20.77;84.78
66689;BME280;53587;59.318;18.084;2023-05-15T05:42:51;101816.25;;;20.75;85.22
66689;BME280;53587;59.318;18.084;2023-05-15T05:45:16;101808.44;;;20.88;84.98
66689;BME280;53587;59.318;18.084;2023-05-15T05:47:41;101811.69;;;21.00;85.11
66689;BME280;53587;59.318;18.084;2023-05-15T05:50:07;101812.78;;;21.04;86.51
66689;BME280;53587;59.318;18.084;2023-05-15T05:52:32;101811.63;;;21.11;85.10
66689;BME280;53587;59.318;18.084;2023-05-15T05:54:57;101808.28;;;21.19;86.43
66689;BME280;53587;59.318;18.084;2023-05-15T05:57:22;101806.50;;;21.33;86.02
66689;BME280;53587;59.318;18.084;2023-05-15T05:59:48;101802.34;;;21.31;85.89
66689;BME280;53587;59.318;18.084;2023-05-15T06:02:13;101798.69;;;21.40;86.94
66689;BME280;53587;59.318;18.084;2023-05-15T06:04:39;101804.97;;;21.51;84.93
66689;BME280;53587;59.318;18.084;2023-05-15T06:07:05;101808.09;;;21.45;85.72
66689;BME280;53587;59.318;18.084;2023-05-15T06:09:30;101803.06;;;21.47;85.45
66689;BME280;53587;59.318;18.084;2023-05-15T06:11:55;101808.88;;;21.50;86.11
66689;BME280;53587;59.318;18.084;2023-05-15T06:14:20;101800.28;;;21.47;86.34
66689;BME280;53587;59.318;18.084;2023-05-15T06:16:46;101803.66;;;21.44;84.30
66689;BME280;53587;59.318;18.084;2023-05-15T06:19:11;101802.81;;;21.43;84.24
66689;BME280;53587;59.318;18.084;2023-05-15T06:21:36;101803.56;;;21.54;86.50
66689;BME280;53587;59.318;18.084;2023-05-15T06:24:01;101809.13;;;21.54;86.64
66689;BME280;53587;59.318;18.084;2023-05-15T06:26:26;101806.88;;;21.61;86.42
66689;BME280;53587;59.318;18.084;2023-05-15T06:28:52;101792.47;;;21.59;84.10
66689;BME280;53587;59.318;18.084;2023-05-15T06:31:17;101806.34;;;21.59;84.64
66689;BME280;53587;59.318;18.084;2023-05-15T06:33:42;101787.53;;;21.51;83.79
66689;BME280;53587;59.318;18.084;2023-05-15T06:36:07;101791.41;;;21.50;84.78
66689;BME280;53587;59.318;18.084;2023-05-15T06:38:33;101785.56;;;21.57;85.17
66689;BME280;53587;59.318;18.084;2023-05-15T06:40:58;101777.59;;;21.45;84.47
66689;BME280;53587;59.318;18.084;2023-05-15T06:43:23;101784.47;;;21.52;85.52
66689;BME280;53587;59.318;18.084;2023-05-15T06:45:48;101783.63;;;21.52;84.47
66689;BME280;53587;59.318;18.084;2023-05-15T06:48:14;101781.72;;;21.47;85.86
66689;BME280;53587;59.318;18.084;2023-05-15T06:50:39;101777.81;;;21.53;85.58
66689;BME280;53587;59.318;18.084;2023-05-15T06:53:04;101782.22;;;21.54;84.93
66689;BME280;53587;59.318;18.084;2023-05-15T06:55:29;101791.09;;;21.57;85.85
66689;BME280;53587;59.318;18.084;2023-05-15T06:57:55;101790.56;;;21.54;84.31
66689;BME280;53587;59.318;18.084;2023-05-15T07:00:20;101791.94;;;21.57;85.56
66689;BME280;53587;59.318;18.084;2023-05-15T07:02:45;101786.41;;;21.57;86.54
66689;BME280;53587;59.318;18.084;2023-05-15T07:05:10;101781.97;;;21.56;85.21
66689;BME280;53587;59.318;18.084;2023-05-15T07:07:36;101778.84;;;21.63;86.75
66689;BME280;53587;59.318;18.084;2023-05-15T07:10:01;101773.06;;;21.54;84.91
66689;BME280;53587;59.318;18.084;2023-05-15T07:12:26;101765.34;;;21.51;85.53
66689;BME280;53587;59.318;18.084;2023-05-15T07:14:51;101779.72;;;21.58;85.58
66689;BME280;53587;59.318;18.084;2023-05-15T07:17:16;101774.47;;;21.57;84.97
66689;BME280;53587;59.318;18.084;2023-05-15T07:19:43;101777.50;;;21.55;86.18
66689;BME280;53587;59.318;18.084;2023-05-15T07:22:08;101784.41;;;21.63;86.70
66689;BME280;53587;59.318;18.084;2023-05-15T07:24:33;101778.28;;;21.66;86.58
66689;BME280;53587;59.318;18.084;2023-05-15T07:26:59;101776.94;;;21.58;86.26
66689;BME280;53587;59.318;18.084;2023-05-15T07:29:24;101766.69;;;21.59;85.30
66689;BME280;53587;59.318;18.084;2023-05-15T07:31:50;101774.16;;;21.63;86.10
66689;BME280;53587;59.318;18.084;2023-05-15T07:34:15;101776.38;;;21.61;85.37
66689;BME280;53587;59.318;18.084;2023-05-15T07:36:40;101769.19;;;21.55;85.06
66689;BME280;53587;59.318;18.084;2023-05-15T07:39:05;101773.91;;;21.60;86.33
66689;BME280;53587;59.318;18.084;2023-05-15T07:41:30;101773.06;;;21.59;85.78
66689;BME280;53587;59.318;18.084;2023-05-15T07:43:57;101776.28;;;21.71;86.32
66689;BME280;53587;59.318;18.084;2023-05-15T07:46:22;101773.06;;;21.59;85.17
66689;BME280;53587;59.318;18.084;2023-05-15T07:48:47;101768.91;;;21.57;86.18
66689;BME280;53587;59.318;18.084;2023-05-15T07:51:13;101766.75;;;21.48;84.66
66689;BME280;53587;59.318;18.084;2023-05-15T07:53:38;101763.72;;;21.45;85.70
66689;BME280;53587;59.318;18.084;2023-05-15T07:56:03;101766.47;;;21.50;85.94
66689;BME280;53587;59.318;18.084;2023-05-15T07:58:28;101765.88;;;21.53;85.10
66689;BME280;53587;59.318;18.084;2023-05-15T08:00:54;101770.63;;;21.47;85.73
66689;BME280;53587;59.318;18.084;2023-05-15T08:03:19;101762.28;;;21.52;84.86
66689;BME280;53587;59.318;18.084;2023-05-15T08:05:44;101756.47;;;21.49;86.43
66689;BME280;53587;59.318;18.084;2023-05-15T08:08:09;101761.22;;;21.48;85.64
66689;BME280;53587;59.318;18.084;2023-05-15T08:10:35;101747.09;;;21.45;85.19
66689;BME280;53587;59.318;18.084;2023-05-15T08:13:00;101738.78;;;21.45;86.06
66689;BME280;53587;59.318;18.084;2023-05-15T08:15:25;101745.38;;;21.49;85.13
66689;BME280;53587;59.318;18.084;2023-05-15T08:17:50;101753.22;;;21.42;86.53
66689;BME280;53587;59.318;18.084;2023-05-15T08:20:16;101744.56;;;21.48;86.15
66689;BME280;53587;59.318;18.084;2023-05-15T08:22:41;101742.03;;;21.57;86.00
66689;BME280;53587;59.318;18.084;2023-05-15T08:25:06;101744.22;;;21.55;85.28
66689;BME280;53587;59.318;18.084;2023-05-15T08:27:32;101726.53;;;21.51;84.79
66689;BME280;53587;59.318;18.084;2023-05-15T08:29:58;101734.28;;;21.49;85.70
66689;BME280;53587;59.318;18.084;2023-05-15T08:32:23;101731.56;;;21.44;86.27
66689;BME280;53587;59.318;18.084;2023-05-15T08:34:49;101737.31;;;21.58;86.07
66689;BME280;53587;59.318;18.084;2023-05-15T08:37:14;101735.31;;;21.63;84.44
66689;BME280;53587;59.318;18.084;2023-05-15T08:39:39;101732.56;;;21.58;86.94
66689;BME280;53587;59.318;18.084;2023-05-15T08:42:23;101727.50;;;21.65;87.13
66689;BME280;53587;59.318;18.084;2023-05-15T08:44:51;101729.16;;;21.66;86.99
66689;BME280;53587;59.318;18.084;2023-05-15T08:47:17;101730.34;;;21.55;85.74
66689;BME280;53587;59.318;18.084;2023-05-15T08:52:20;101732.81;;;21.62;87.21
66689;BME280;53587;59.318;18.084;2023-05-15T08:54:46;101721.41;;;21.68;87.71
66689;BME280;53587;59.318;18.084;2023-05-15T08:57:12;101723.31;;;21.73;85.42
66689;BME280;53587;59.318;18.084;2023-05-15T08:59:38;101737.44;;;21.71;85.03
66689;BME280;53587;59.318;18.084;2023-05-15T09:02:04;101720.91;;;21.61;86.28
66689;BME280;53587;59.318;18.084;2023-05-15T09:04:29;101728.31;;;21.71;87.36
66689;BME280;53587;59.318;18.084;2023-05-15T09:06:54;101717.59;;;21.59;86.14
66689;BME280;53587;59.318;18.084;2023-05-15T09:09:20;101720.91;;;21.61;85.33
66689;BME280;53587;59.318;18.084;2023-05-15T09:11:45;101720.69;;;21.52;84.10
66689;BME280;53587;59.318;18.084;2023-05-15T09:14:12;101715.69;;;21.54;85.94
66689;BME280;53587;59.318;18.084;2023-05-15T09:16:37;101716.84;;;21.48;85.72
66689;BME280;53587;59.318;18.084;2023-05-15T09:19:03;101714.34;;;21.47;85.92
66689;BME280;53587;59.318;18.084;2023-05-15T09:21:29;101702.75;;;21.39;84.36
66689;BME280;53587;59.318;18.084;2023-05-15T09:24:14;101708.78;;;21.47;84.23
66689;BME280;53587;59.318;18.084;2023-05-15T09:26:40;101703.19;;;21.52;86.97
66689;BME280;53587;59.318;18.084;2023-05-15T09:29:06;101703.16;;;21.62;86.51
66689;BME280;53587;59.318;18.084;2023-05-15T09:31:31;101703.16;;;21.62;87.15
66689;BME280;53587;59.318;18.084;2023-05-15T09:34:00;101688.75;;;21.55;84.12
66689;BME280;53587;59.318;18.084;2023-05-15T09:36:25;101698.56;;;21.42;83.23
66689;BME280;53587;59.318;18.084;2023-05-15T09:38:56;101677.84;;;21.34;85.61
66689;BME280;53587;59.318;18.084;2023-05-15T09:41:23;101696.66;;;21.43;86.30
66689;BME280;53587;59.318;18.084;2023-05-15T09:43:48;101691.59;;;21.50;85.19
66689;BME280;53587;59.318;18.084;2023-05-15T09:46:13;101692.50;;;21.40;83.93
66689;BME280;53587;59.318;18.084;2023-05-15T09:48:41;101698.97;;;21.30;84.54
66689;BME280;53587;59.318;18.084;2023-05-15T09:51:12;101701.34;;;21.42;86.30
66689;BME280;53587;59.318;18.084;2023-05-15T09:53:38;101692.69;;;21.49;86.59
66689;BME280;53587;59.318;18.084;2023-05-15T09:56:03;101694.59;;;21.53;85.78
66689;BME280;53587;59.318;18.084;2023-05-15T09:58:29;101698.19;;;21.54;84.46
66689;BME280;53587;59.318;18.084;2023-05-15T10:00:54;101695.56;;;21.38;84.78
66689;BME280;53587;59.318;18.084;2023-05-15T10:03:23;101706.56;;;21.49;86.47
66689;BME280;53587;59.318;18.084;2023-05-15T10:05:48;101700.97;;;21.54;87.29
66689;BME280;53587;59.318;18.084;2023-05-15T10:08:13;101698.47;;;21.58;86.47
66689;BME280;53587;59.318;18.084;2023-05-15T10:10:41;101695.72;;;21.52;83.60
66689;BME280;53587;59.318;18.084;2023-05-15T10:13:07;101700.91;;;21.30;83.12
66689;BME280;53587;59.318;18.084;2023-05-15T10:15:33;101696.03;;;21.46;86.12
66689;BME280;53587;59.318;18.084;2023-05-15T10:17:59;101700.06;;;21.64;88.20
66689;BME280;53587;59.318;18.084;2023-05-15T10:20:25;101696.69;;;21.72;87.08
66689;BME280;53587;59.318;18.084;2023-05-15T10:22:51;101693.75;;;21.58;82.61
66689;BME280;53587;59.318;18.084;2023-05-15T10:25:22;101693.75;;;21.23;83.40
66689;BME280;53587;59.318;18.084;2023-05-15T10:27:50;101697.81;;;21.36;85.67
66689;BME280;53587;59.318;18.084;2023-05-15T10:30:15;101686.16;;;21.34;86.35
66689;BME280;53587;59.318;18.084;2023-05-15T10:32:41;101696.03;;;21.46;85.90
66689;BME280;53587;59.318;18.084;2023-05-15T10:35:08;101694.41;;;21.45;84.96
66689;BME280;53587;59.318;18.084;2023-05-15T10:37:34;101692.81;;;21.38;86.25
66689;BME280;53587;59.318;18.084;2023-05-15T10:40:00;101693.03;;;21.42;86.01
66689;BME280;53587;59.318;18.084;2023-05-15T10:42:25;101693.00;;;21.47;86.97
66689;BME280;53587;59.318;18.084;2023-05-15T10:44:53;101692.94;;;21.58;85.07
66689;BME280;53587;59.318;18.084;2023-05-15T10:47:23;101689.78;;;21.35;83.76
66689;BME280;53587;59.318;18.084;2023-05-15T10:49:49;101688.94;;;21.34;85.61
66689;BME280;53587;59.318;18.084;2023-05-15T10:52:14;101698.78;;;21.56;87.24
66689;BME280;53587;59.318;18.084;2023-05-15T10:54:40;101695.03;;;21.71;88.32
66689;BME280;53587;59.318;18.084;2023-05-15T10:57:05;101677.78;;;21.74;85.95
66689;BME280;53587;59.318;18.084;2023-05-15T10:59:30;101688.44;;;21.62;84.15
66689;BME280;53587;59.318;18.084;2023-05-15T11:01:56;101682.72;;;21.48;86.06
66689;BME280;53587;59.318;18.084;2023-05-15T11:04:21;101694.31;;;21.55;86.71
66689;BME280;53587;59.318;18.084;2023-05-15T11:06:47;101688.69;;;21.65;87.24
66689;BME280;53587;59.318;18.084;2023-05-15T11:14:16;101688.56;;;21.46;85.51
66689;BME280;53587;59.318;18.084;2023-05-15T11:21:55;101679.41;;;21.46;83.07
66689;BME280;53587;59.318;18.084;2023-05-15T11:24:25;101672.91;;;21.31;84.42
66689;BME280;53587;59.318;18.084;2023-05-15T11:26:51;101679.41;;;21.46;86.10
66689;BME280;53587;59.318;18.084;2023-05-15T11:29:17;101676.94;;;21.44;85.52
66689;BME280;53587;59.318;18.084;2023-05-15T11:31:43;101665.53;;;21.51;85.90
66689;BME280;53587;59.318;18.084;2023-05-15T11:34:08;101669.72;;;21.43;83.99
66689;BME280;53587;59.318;18.084;2023-05-15T11:36:33;101670.66;;;21.33;84.15
66689;BME280;53587;59.318;18.084;2023-05-15T11:39:08;101675.03;;;21.39;86.53
66689;BME280;53587;59.318;18.084;2023-05-15T11:41:33;101662.72;;;21.56;88.01
66689;BME280;53587;59.318;18.084;2023-05-15T11:43:59;101661.66;;;21.76;88.10
66689;BME280;53587;59.318;18.084;2023-05-15T11:46:25;101643.56;;;21.54;83.69
66689;BME280;53587;59.318;18.084;2023-05-15T11:48:51;101646.63;;;21.53;85.53
66689;BME280;53587;59.318;18.084;2023-05-15T11:51:17;101638.47;;;21.67;86.94
66689;BME280;53587;59.318;18.084;2023-05-15T11:53:43;101642.63;;;21.69;87.69
66689;BME280;53587;59.318;18.084;2023-05-15T11:56:12;101638.19;;;21.68;86.53
66689;BME280;53587;59.318;18.084;2023-05-15T11:58:41;101626.09;;;21.54;83.03
66689;BME280;53587;59.318;18.084;2023-05-15T12:01:08;101633.75;;;21.38;83.68
66689;BME280;53587;59.318;18.084;2023-05-15T12:03:34;101627.88;;;21.45;85.46
66689;BME280;53587;59.318;18.084;2023-05-15T12:06:02;101627.88;;;21.45;86.55
66689;BME280;53587;59.318;18.084;2023-05-15T12:08:31;101631.69;;;21.49;85.49
66689;BME280;53587;59.318;18.084;2023-05-15T12:10:57;101633.50;;;21.34;82.25
66689;BME280;53587;59.318;18.084;2023-05-15T12:13:23;101627.00;;;21.20;84.52
66689;BME280;53587;59.318;18.084;2023-05-15T12:15:48;101628.44;;;21.42;87.50
66689;BME280;53587;59.318;18.084;2023-05-15T12:18:13;101632.03;;;21.71;89.08
66689;BME280;53587;59.318;18.084;2023-05-15T12:20:39;101623.78;;;21.66;84.86
66689;BME280;53587;59.318;18.084;2023-05-15T12:23:08;101624.13;;;21.30;83.06
66689;BME280;53587;59.318;18.084;2023-05-15T12:25:34;101631.06;;;21.28;84.69
66689;BME280;53587;59.318;18.084;2023-05-15T12:28:00;101622.25;;;21.50;87.06
66689;BME280;53587;59.318;18.084;2023-05-15T12:30:26;101623.47;;;21.68;88.58
66689;BME280;53587;59.318;18.084;2023-05-15T12:32:51;101612.19;;;21.59;85.43
66689;BME280;53587;59.318;18.084;2023-05-15T12:35:16;101611.81;;;21.42;83.03
66689;BME280;53587;59.318;18.084;2023-05-15T12:37:42;101615.19;;;21.38;85.02
66689;BME280;53587;59.318;18.084;2023-05-15T12:40:07;101609.81;;;21.47;86.39
66689;BME280;53587;59.318;18.084;2023-05-15T12:42:44;101616.13;;;21.53;87.01
66689;BME280;53587;59.318;18.084;2023-05-15T12:45:13;101615.00;;;21.54;83.77
66689;BME280;53587;59.318;18.084;2023-05-15T12:47:39;101605.28;;;21.27;82.49
66689;BME280;53587;59.318;18.084;2023-05-15T12:50:14;101600.84;;;21.31;84.94
66689;BME280;53587;59.318;18.084;2023-05-15T12:52:44;101604.47;;;21.56;87.66
66689;BME280;53587;59.318;18.084;2023-05-15T12:55:14;101601.28;;;21.68;87.49
66689;BME280;53587;59.318;18.084;2023-05-15T12:57:40;101589.56;;;21.47;83.52
66689;BME280;53587;59.318;18.084;2023-05-15T13:00:08;101601.75;;;21.21;82.87
66689;BME280;53587;59.318;18.084;2023-05-15T13:02:34;101598.94;;;21.27;85.84